Terminal Aerodrome Forecast
Issued by NWS

Home | Current Version | Previous Version | Text Only | Print | Product List | Glossary On
Versions: 1 2 3 4 5 6 7 8 9 10 11 12 13 14 15 16 17
988
FTUS43 KMPX 081739
TAFRNH
TAF
KRNH 081739Z 0818/0918 33018G24KT 5SM -SN BLSN SCT025 BKN040
      TEMPO 0818/0822 1 1/2SM -SN BLSN BKN020
     FM082200 32016G24KT 5SM -SN BLSN BKN025
     FM090900 32014G22KT P6SM SCT250=

USA.gov is the U.S. government's official web portal to all federal, state and local government web resources and services.